Terminal Aerodrome Forecast
Issued by NWS

Home | Current Version | Previous Version | Text Only | Print | Product List | Glossary On
Versions: 1 2 3 4 5 6 7 8 9 10 11 12 13 14
680
FTUS45 KPIH 251120
TAFSUN
TAF
KSUN 251120Z 2512/2612 32008KT P6SM FEW008 BKN150
     FM251900 22009KT P6SM SCT150
     FM260300 31008KT P6SM SCT150
      AMD LTD TO CLD VIS AND WIND TIL 251300=

USA.gov is the U.S. government's official web portal to all federal, state and local government web resources and services.